sensor_id;sensor_type;location;lat;lon;timestamp;P1;durP1;ratioP1;P2;durP2;ratioP2
68192;SDS011;55012;47.562;18.414;2022-08-05T00:01:16;6.57;;;4.55;;
68192;SDS011;55012;47.562;18.414;2022-08-05T00:03:44;8.75;;;4.68;;
68192;SDS011;55012;47.562;18.414;2022-08-05T00:06:09;7.38;;;4.50;;
68192;SDS011;55012;47.562;18.414;2022-08-05T00:08:35;5.45;;;4.40;;
68192;SDS011;55012;47.562;18.414;2022-08-05T00:11:03;9.07;;;4.30;;
68192;SDS011;55012;47.562;18.414;2022-08-05T00:13:31;7.28;;;4.80;;
68192;SDS011;55012;47.562;18.414;2022-08-05T00:15:58;8.45;;;4.65;;
68192;SDS011;55012;47.562;18.414;2022-08-05T00:18:24;8.75;;;4.65;;
68192;SDS011;55012;47.562;18.414;2022-08-05T00:20:49;7.95;;;4.70;;
68192;SDS011;55012;47.562;18.414;2022-08-05T00:23:16;6.45;;;4.47;;
68192;SDS011;55012;47.562;18.414;2022-08-05T00:25:42;9.82;;;4.57;;
68192;SDS011;55012;47.562;18.414;2022-08-05T00:28:07;9.82;;;5.00;;
68192;SDS011;55012;47.562;18.414;2022-08-05T00:30:33;12.18;;;4.65;;
68192;SDS011;55012;47.562;18.414;2022-08-05T00:32:58;9.40;;;4.80;;
68192;SDS011;55012;47.562;18.414;2022-08-05T00:35:24;8.73;;;4.72;;
68192;SDS011;55012;47.562;18.414;2022-08-05T00:37:49;14.60;;;5.20;;
68192;SDS011;55012;47.562;18.414;2022-08-05T00:40:15;12.05;;;4.90;;
68192;SDS011;55012;47.562;18.414;2022-08-05T00:42:41;12.90;;;5.13;;
68192;SDS011;55012;47.562;18.414;2022-08-05T00:45:07;11.43;;;4.60;;
68192;SDS011;55012;47.562;18.414;2022-08-05T00:47:33;12.82;;;5.00;;
68192;SDS011;55012;47.562;18.414;2022-08-05T00:49:59;11.80;;;4.60;;
68192;SDS011;55012;47.562;18.414;2022-08-05T00:52:24;12.43;;;5.22;;
68192;SDS011;55012;47.562;18.414;2022-08-05T00:54:50;11.95;;;4.68;;
68192;SDS011;55012;47.562;18.414;2022-08-05T00:57:15;11.75;;;5.05;;
68192;SDS011;55012;47.562;18.414;2022-08-05T00:59:41;10.02;;;4.65;;
68192;SDS011;55012;47.562;18.414;2022-08-05T01:02:07;8.50;;;4.60;;
68192;SDS011;55012;47.562;18.414;2022-08-05T01:04:32;7.60;;;4.60;;
68192;SDS011;55012;47.562;18.414;2022-08-05T01:06:58;6.72;;;4.45;;
68192;SDS011;55012;47.562;18.414;2022-08-05T01:09:23;9.48;;;4.85;;
68192;SDS011;55012;47.562;18.414;2022-08-05T01:11:50;10.88;;;4.88;;
68192;SDS011;55012;47.562;18.414;2022-08-05T01:14:39;9.40;;;4.53;;
68192;SDS011;55012;47.562;18.414;2022-08-05T01:20:15;11.98;;;4.55;;
68192;SDS011;55012;47.562;18.414;2022-08-05T01:34:03;6.88;;;4.60;;
68192;SDS011;55012;47.562;18.414;2022-08-05T01:36:28;13.50;;;4.90;;
68192;SDS011;55012;47.562;18.414;2022-08-05T01:38:58;9.05;;;4.07;;
68192;SDS011;55012;47.562;18.414;2022-08-05T01:41:24;14.52;;;4.88;;
68192;SDS011;55012;47.562;18.414;2022-08-05T01:43:53;10.82;;;4.60;;
68192;SDS011;55012;47.562;18.414;2022-08-05T01:46:20;8.82;;;4.38;;
68192;SDS011;55012;47.562;18.414;2022-08-05T01:48:49;10.63;;;4.55;;
68192;SDS011;55012;47.562;18.414;2022-08-05T01:51:16;13.45;;;4.80;;
68192;SDS011;55012;47.562;18.414;2022-08-05T01:53:42;9.43;;;4.63;;
68192;SDS011;55012;47.562;18.414;2022-08-05T01:56:10;8.32;;;4.55;;
68192;SDS011;55012;47.562;18.414;2022-08-05T01:58:39;13.15;;;4.80;;
68192;SDS011;55012;47.562;18.414;2022-08-05T02:01:07;10.43;;;4.57;;
68192;SDS011;55012;47.562;18.414;2022-08-05T02:03:37;9.60;;;4.60;;
68192;SDS011;55012;47.562;18.414;2022-08-05T02:06:09;9.07;;;4.72;;
68192;SDS011;55012;47.562;18.414;2022-08-05T02:08:35;5.68;;;4.32;;
68192;SDS011;55012;47.562;18.414;2022-08-05T02:11:04;8.18;;;4.30;;
68192;SDS011;55012;47.562;18.414;2022-08-05T02:16:26;6.88;;;4.32;;
68192;SDS011;55012;47.562;18.414;2022-08-05T02:19:57;7.40;;;3.90;;
68192;SDS011;55012;47.562;18.414;2022-08-05T02:21:53;7.35;;;4.30;;
68192;SDS011;55012;47.562;18.414;2022-08-05T02:24:25;8.40;;;4.35;;
68192;SDS011;55012;47.562;18.414;2022-08-05T02:26:55;6.95;;;4.40;;
68192;SDS011;55012;47.562;18.414;2022-08-05T02:29:24;5.63;;;4.35;;
68192;SDS011;55012;47.562;18.414;2022-08-05T02:31:52;7.50;;;4.55;;
68192;SDS011;55012;47.562;18.414;2022-08-05T02:34:21;8.52;;;4.60;;
68192;SDS011;55012;47.562;18.414;2022-08-05T02:36:52;8.23;;;4.65;;
68192;SDS011;55012;47.562;18.414;2022-08-05T02:39:21;11.77;;;4.22;;
68192;SDS011;55012;47.562;18.414;2022-08-05T02:41:48;6.90;;;4.68;;
68192;SDS011;55012;47.562;18.414;2022-08-05T02:44:16;10.10;;;4.40;;
68192;SDS011;55012;47.562;18.414;2022-08-05T02:46:44;8.82;;;4.80;;
68192;SDS011;55012;47.562;18.414;2022-08-05T02:49:15;7.90;;;4.80;;
68192;SDS011;55012;47.562;18.414;2022-08-05T02:51:41;7.32;;;4.53;;
68192;SDS011;55012;47.562;18.414;2022-08-05T02:54:08;7.60;;;4.32;;
68192;SDS011;55012;47.562;18.414;2022-08-05T02:56:35;9.35;;;4.78;;
68192;SDS011;55012;47.562;18.414;2022-08-05T02:59:02;13.80;;;4.68;;
68192;SDS011;55012;47.562;18.414;2022-08-05T03:01:29;7.70;;;4.60;;
68192;SDS011;55012;47.562;18.414;2022-08-05T03:03:58;8.05;;;4.30;;
68192;SDS011;55012;47.562;18.414;2022-08-05T03:06:26;13.57;;;4.40;;
68192;SDS011;55012;47.562;18.414;2022-08-05T03:08:52;8.02;;;4.18;;
68192;SDS011;55012;47.562;18.414;2022-08-05T03:11:19;6.60;;;4.45;;
68192;SDS011;55012;47.562;18.414;2022-08-05T03:13:49;11.68;;;4.50;;
68192;SDS011;55012;47.562;18.414;2022-08-05T03:16:17;7.72;;;4.60;;
68192;SDS011;55012;47.562;18.414;2022-08-05T03:18:43;9.20;;;4.70;;
68192;SDS011;55012;47.562;18.414;2022-08-05T03:21:08;9.32;;;4.70;;
68192;SDS011;55012;47.562;18.414;2022-08-05T03:23:34;10.35;;;4.70;;
68192;SDS011;55012;47.562;18.414;2022-08-05T03:26:02;10.52;;;4.65;;
68192;SDS011;55012;47.562;18.414;2022-08-05T03:28:29;9.18;;;4.78;;
68192;SDS011;55012;47.562;18.414;2022-08-05T03:30:56;8.32;;;4.50;;
68192;SDS011;55012;47.562;18.414;2022-08-05T03:33:23;13.80;;;4.63;;
68192;SDS011;55012;47.562;18.414;2022-08-05T03:35:51;9.20;;;4.40;;
68192;SDS011;55012;47.562;18.414;2022-08-05T03:38:17;6.95;;;4.60;;
68192;SDS011;55012;47.562;18.414;2022-08-05T03:40:43;10.25;;;4.53;;
68192;SDS011;55012;47.562;18.414;2022-08-05T03:43:09;6.78;;;4.30;;
68192;SDS011;55012;47.562;18.414;2022-08-05T03:45:35;7.57;;;4.03;;
68192;SDS011;55012;47.562;18.414;2022-08-05T03:48:01;8.00;;;3.85;;
68192;SDS011;55012;47.562;18.414;2022-08-05T03:50:27;9.45;;;4.30;;
68192;SDS011;55012;47.562;18.414;2022-08-05T03:53:31;7.43;;;4.22;;
68192;SDS011;55012;47.562;18.414;2022-08-05T04:01:13;10.57;;;4.65;;
68192;SDS011;55012;47.562;18.414;2022-08-05T04:03:41;11.65;;;4.50;;
68192;SDS011;55012;47.562;18.414;2022-08-05T04:06:10;8.38;;;4.20;;
68192;SDS011;55012;47.562;18.414;2022-08-05T04:08:36;14.57;;;4.50;;
68192;SDS011;55012;47.562;18.414;2022-08-05T04:11:02;10.50;;;4.60;;
68192;SDS011;55012;47.562;18.414;2022-08-05T04:13:31;6.13;;;4.40;;
68192;SDS011;55012;47.562;18.414;2022-08-05T04:15:57;8.48;;;4.40;;
68192;SDS011;55012;47.562;18.414;2022-08-05T04:18:23;10.90;;;4.40;;
68192;SDS011;55012;47.562;18.414;2022-08-05T04:20:52;8.15;;;4.30;;
68192;SDS011;55012;47.562;18.414;2022-08-05T04:23:20;9.68;;;4.57;;
68192;SDS011;55012;47.562;18.414;2022-08-05T04:25:49;9.10;;;4.32;;
68192;SDS011;55012;47.562;18.414;2022-08-05T04:28:14;6.35;;;4.28;;
68192;SDS011;55012;47.562;18.414;2022-08-05T04:30:40;8.40;;;4.53;;
68192;SDS011;55012;47.562;18.414;2022-08-05T04:33:05;8.82;;;4.55;;
68192;SDS011;55012;47.562;18.414;2022-08-05T04:35:31;11.75;;;4.30;;
68192;SDS011;55012;47.562;18.414;2022-08-05T04:37:56;9.20;;;4.57;;
68192;SDS011;55012;47.562;18.414;2022-08-05T04:40:21;9.00;;;4.30;;
68192;SDS011;55012;47.562;18.414;2022-08-05T04:42:47;7.47;;;4.25;;
68192;SDS011;55012;47.562;18.414;2022-08-05T04:45:13;10.00;;;4.80;;
68192;SDS011;55012;47.562;18.414;2022-08-05T04:47:38;10.13;;;4.80;;
68192;SDS011;55012;47.562;18.414;2022-08-05T04:50:04;9.10;;;4.47;;
68192;SDS011;55012;47.562;18.414;2022-08-05T04:52:29;8.13;;;4.32;;
68192;SDS011;55012;47.562;18.414;2022-08-05T04:54:55;8.85;;;4.40;;
68192;SDS011;55012;47.562;18.414;2022-08-05T04:57:20;6.25;;;4.32;;
68192;SDS011;55012;47.562;18.414;2022-08-05T04:59:46;9.90;;;4.43;;
68192;SDS011;55012;47.562;18.414;2022-08-05T05:02:11;7.82;;;4.32;;
68192;SDS011;55012;47.562;18.414;2022-08-05T05:04:37;11.60;;;4.68;;
68192;SDS011;55012;47.562;18.414;2022-08-05T05:07:02;11.35;;;4.55;;
68192;SDS011;55012;47.562;18.414;2022-08-05T05:09:28;8.93;;;4.45;;
68192;SDS011;55012;47.562;18.414;2022-08-05T05:11:53;10.40;;;4.78;;
68192;SDS011;55012;47.562;18.414;2022-08-05T05:14:19;9.25;;;4.60;;
68192;SDS011;55012;47.562;18.414;2022-08-05T05:16:44;11.25;;;4.70;;
68192;SDS011;55012;47.562;18.414;2022-08-05T05:19:10;10.73;;;4.53;;
68192;SDS011;55012;47.562;18.414;2022-08-05T05:21:35;9.77;;;4.40;;
68192;SDS011;55012;47.562;18.414;2022-08-05T05:24:00;12.20;;;4.65;;
68192;SDS011;55012;47.562;18.414;2022-08-05T05:26:26;10.73;;;4.43;;
68192;SDS011;55012;47.562;18.414;2022-08-05T05:28:51;7.97;;;4.15;;
68192;SDS011;55012;47.562;18.414;2022-08-05T05:31:17;9.73;;;4.18;;
68192;SDS011;55012;47.562;18.414;2022-08-05T05:33:42;8.02;;;4.30;;
68192;SDS011;55012;47.562;18.414;2022-08-05T05:36:08;8.82;;;4.45;;
68192;SDS011;55012;47.562;18.414;2022-08-05T05:38:33;16.65;;;4.63;;
68192;SDS011;55012;47.562;18.414;2022-08-05T05:40:59;8.70;;;4.50;;
68192;SDS011;55012;47.562;18.414;2022-08-05T05:43:24;12.13;;;4.70;;
68192;SDS011;55012;47.562;18.414;2022-08-05T05:45:50;16.40;;;4.68;;
68192;SDS011;55012;47.562;18.414;2022-08-05T05:48:15;13.77;;;4.47;;
68192;SDS011;55012;47.562;18.414;2022-08-05T05:50:41;11.50;;;4.80;;
68192;SDS011;55012;47.562;18.414;2022-08-05T05:53:06;14.00;;;4.82;;
68192;SDS011;55012;47.562;18.414;2022-08-05T05:55:35;11.20;;;4.80;;
68192;SDS011;55012;47.562;18.414;2022-08-05T05:58:01;12.63;;;5.22;;
68192;SDS011;55012;47.562;18.414;2022-08-05T06:00:26;15.05;;;5.90;;
68192;SDS011;55012;47.562;18.414;2022-08-05T06:02:52;13.40;;;5.72;;
68192;SDS011;55012;47.562;18.414;2022-08-05T06:05:17;9.27;;;5.30;;
68192;SDS011;55012;47.562;18.414;2022-08-05T06:07:44;6.68;;;4.80;;
68192;SDS011;55012;47.562;18.414;2022-08-05T06:10:10;6.05;;;4.90;;
68192;SDS011;55012;47.562;18.414;2022-08-05T06:12:37;6.00;;;4.95;;
68192;SDS011;55012;47.562;18.414;2022-08-05T06:15:03;6.68;;;5.10;;
68192;SDS011;55012;47.562;18.414;2022-08-05T06:17:31;6.18;;;4.97;;
68192;SDS011;55012;47.562;18.414;2022-08-05T06:19:56;6.63;;;4.65;;
68192;SDS011;55012;47.562;18.414;2022-08-05T06:22:23;7.28;;;4.80;;
68192;SDS011;55012;47.562;18.414;2022-08-05T06:24:49;8.00;;;5.18;;
68192;SDS011;55012;47.562;18.414;2022-08-05T06:27:15;10.65;;;5.10;;
68192;SDS011;55012;47.562;18.414;2022-08-05T06:29:40;7.47;;;4.93;;
68192;SDS011;55012;47.562;18.414;2022-08-05T06:32:07;8.75;;;4.90;;
68192;SDS011;55012;47.562;18.414;2022-08-05T06:34:32;7.63;;;4.78;;
68192;SDS011;55012;47.562;18.414;2022-08-05T06:36:58;7.85;;;5.43;;
68192;SDS011;55012;47.562;18.414;2022-08-05T06:39:23;7.15;;;5.03;;
68192;SDS011;55012;47.562;18.414;2022-08-05T06:41:50;8.07;;;5.15;;
68192;SDS011;55012;47.562;18.414;2022-08-05T06:44:15;10.32;;;5.10;;
68192;SDS011;55012;47.562;18.414;2022-08-05T06:46:41;7.30;;;4.93;;
68192;SDS011;55012;47.562;18.414;2022-08-05T06:49:06;6.82;;;4.70;;
68192;SDS011;55012;47.562;18.414;2022-08-05T06:51:32;7.63;;;5.47;;
68192;SDS011;55012;47.562;18.414;2022-08-05T06:53:58;6.60;;;4.70;;
68192;SDS011;55012;47.562;18.414;2022-08-05T06:56:24;9.43;;;5.15;;
68192;SDS011;55012;47.562;18.414;2022-08-05T06:58:51;8.15;;;4.90;;
68192;SDS011;55012;47.562;18.414;2022-08-05T07:01:16;7.80;;;4.97;;
68192;SDS011;55012;47.562;18.414;2022-08-05T07:03:42;6.13;;;4.85;;
68192;SDS011;55012;47.562;18.414;2022-08-05T07:06:07;5.80;;;5.00;;
68192;SDS011;55012;47.562;18.414;2022-08-05T07:08:33;8.57;;;5.07;;
68192;SDS011;55012;47.562;18.414;2022-08-05T07:10:58;5.88;;;4.60;;
68192;SDS011;55012;47.562;18.414;2022-08-05T07:13:23;8.52;;;4.82;;
68192;SDS011;55012;47.562;18.414;2022-08-05T07:16:08;5.45;;;4.57;;
68192;SDS011;55012;47.562;18.414;2022-08-05T07:18:52;6.63;;;4.90;;
68192;SDS011;55012;47.562;18.414;2022-08-05T07:21:17;6.35;;;4.75;;
68192;SDS011;55012;47.562;18.414;2022-08-05T07:23:43;12.43;;;5.15;;
68192;SDS011;55012;47.562;18.414;2022-08-05T07:26:08;6.35;;;4.90;;
68192;SDS011;55012;47.562;18.414;2022-08-05T07:28:34;5.70;;;4.53;;
68192;SDS011;55012;47.562;18.414;2022-08-05T07:30:59;5.70;;;4.60;;
68192;SDS011;55012;47.562;18.414;2022-08-05T07:33:24;5.95;;;4.88;;
68192;SDS011;55012;47.562;18.414;2022-08-05T07:35:50;6.40;;;5.00;;
68192;SDS011;55012;47.562;18.414;2022-08-05T07:38:16;5.60;;;4.78;;
68192;SDS011;55012;47.562;18.414;2022-08-05T07:40:42;6.57;;;4.63;;
68192;SDS011;55012;47.562;18.414;2022-08-05T07:43:09;7.88;;;4.72;;
68192;SDS011;55012;47.562;18.414;2022-08-05T07:45:35;8.13;;;4.88;;
68192;SDS011;55012;47.562;18.414;2022-08-05T07:48:00;6.50;;;4.47;;
68192;SDS011;55012;47.562;18.414;2022-08-05T07:50:26;8.30;;;4.88;;
68192;SDS011;55012;47.562;18.414;2022-08-05T07:52:51;6.22;;;4.78;;
68192;SDS011;55012;47.562;18.414;2022-08-05T07:55:17;6.28;;;4.60;;
68192;SDS011;55012;47.562;18.414;2022-08-05T07:57:42;5.55;;;4.65;;
68192;SDS011;55012;47.562;18.414;2022-08-05T08:00:11;6.85;;;4.80;;
68192;SDS011;55012;47.562;18.414;2022-08-05T08:02:38;5.75;;;4.70;;
68192;SDS011;55012;47.562;18.414;2022-08-05T08:05:04;5.85;;;4.60;;
68192;SDS011;55012;47.562;18.414;2022-08-05T08:07:30;9.55;;;5.18;;
68192;SDS011;55012;47.562;18.414;2022-08-05T08:09:55;5.20;;;4.70;;
68192;SDS011;55012;47.562;18.414;2022-08-05T08:12:21;5.40;;;4.50;;
68192;SDS011;55012;47.562;18.414;2022-08-05T08:14:47;7.18;;;4.70;;
68192;SDS011;55012;47.562;18.414;2022-08-05T08:17:13;8.23;;;4.82;;
68192;SDS011;55012;47.562;18.414;2022-08-05T08:19:39;7.97;;;5.03;;
68192;SDS011;55012;47.562;18.414;2022-08-05T08:22:06;8.13;;;4.72;;
68192;SDS011;55012;47.562;18.414;2022-08-05T08:24:32;6.93;;;4.72;;
68192;SDS011;55012;47.562;18.414;2022-08-05T08:26:58;6.32;;;4.72;;
68192;SDS011;55012;47.562;18.414;2022-08-05T08:29:23;6.68;;;4.90;;
68192;SDS011;55012;47.562;18.414;2022-08-05T08:31:50;5.50;;;4.63;;
68192;SDS011;55012;47.562;18.414;2022-08-05T08:34:20;6.53;;;4.70;;
68192;SDS011;55012;47.562;18.414;2022-08-05T08:36:47;6.35;;;4.50;;
68192;SDS011;55012;47.562;18.414;2022-08-05T08:39:13;6.80;;;4.90;;
68192;SDS011;55012;47.562;18.414;2022-08-05T08:41:42;8.07;;;4.70;;
68192;SDS011;55012;47.562;18.414;2022-08-05T08:44:10;7.32;;;4.53;;
68192;SDS011;55012;47.562;18.414;2022-08-05T08:46:37;5.75;;;4.60;;
68192;SDS011;55012;47.562;18.414;2022-08-05T08:49:03;8.82;;;4.70;;
68192;SDS011;55012;47.562;18.414;2022-08-05T08:51:32;8.05;;;4.68;;
68192;SDS011;55012;47.562;18.414;2022-08-05T08:53:59;7.60;;;4.63;;
68192;SDS011;55012;47.562;18.414;2022-08-05T08:56:25;5.82;;;4.40;;
68192;SDS011;55012;47.562;18.414;2022-08-05T08:58:51;8.38;;;4.60;;
68192;SDS011;55012;47.562;18.414;2022-08-05T09:01:17;7.65;;;4.80;;
68192;SDS011;55012;47.562;18.414;2022-08-05T09:03:50;7.95;;;4.38;;
68192;SDS011;55012;47.562;18.414;2022-08-05T09:06:17;7.95;;;4.70;;
68192;SDS011;55012;47.562;18.414;2022-08-05T09:08:43;5.35;;;4.50;;
68192;SDS011;55012;47.562;18.414;2022-08-05T09:11:09;5.22;;;4.65;;
68192;SDS011;55012;47.562;18.414;2022-08-05T09:13:36;7.70;;;4.50;;
68192;SDS011;55012;47.562;18.414;2022-08-05T09:16:02;5.82;;;4.80;;
68192;SDS011;55012;47.562;18.414;2022-08-05T09:18:28;5.00;;;4.50;;
68192;SDS011;55012;47.562;18.414;2022-08-05T09:20:54;6.18;;;4.90;;
68192;SDS011;55012;47.562;18.414;2022-08-05T09:23:20;5.75;;;4.60;;
68192;SDS011;55012;47.562;18.414;2022-08-05T09:25:46;6.28;;;4.80;;
68192;SDS011;55012;47.562;18.414;2022-08-05T09:28:20;7.30;;;4.47;;
68192;SDS011;55012;47.562;18.414;2022-08-05T09:33:21;5.45;;;4.57;;
68192;SDS011;55012;47.562;18.414;2022-08-05T09:35:58;5.03;;;4.07;;
68192;SDS011;55012;47.562;18.414;2022-08-05T09:38:25;8.70;;;4.32;;
68192;SDS011;55012;47.562;18.414;2022-08-05T09:40:50;4.63;;;3.97;;
68192;SDS011;55012;47.562;18.414;2022-08-05T09:43:27;6.05;;;4.30;;
68192;SDS011;55012;47.562;18.414;2022-08-05T09:45:59;5.25;;;3.90;;
68192;SDS011;55012;47.562;18.414;2022-08-05T09:48:27;7.68;;;4.47;;
68192;SDS011;55012;47.562;18.414;2022-08-05T09:51:01;8.20;;;4.00;;
68192;SDS011;55012;47.562;18.414;2022-08-05T09:53:28;7.22;;;3.95;;
68192;SDS011;55012;47.562;18.414;2022-08-05T09:55:56;7.13;;;4.10;;
68192;SDS011;55012;47.562;18.414;2022-08-05T09:58:23;7.38;;;4.40;;
68192;SDS011;55012;47.562;18.414;2022-08-05T10:00:57;6.78;;;4.10;;
68192;SDS011;55012;47.562;18.414;2022-08-05T10:03:25;5.25;;;3.90;;
68192;SDS011;55012;47.562;18.414;2022-08-05T10:06:04;7.88;;;4.35;;
68192;SDS011;55012;47.562;18.414;2022-08-05T10:08:32;5.50;;;4.07;;
68192;SDS011;55012;47.562;18.414;2022-08-05T10:10:58;4.53;;;4.05;;
68192;SDS011;55012;47.562;18.414;2022-08-05T10:13:30;5.75;;;3.80;;
68192;SDS011;55012;47.562;18.414;2022-08-05T10:16:00;5.75;;;3.97;;
68192;SDS011;55012;47.562;18.414;2022-08-05T10:18:30;4.82;;;4.22;;
68192;SDS011;55012;47.562;18.414;2022-08-05T10:21:00;5.65;;;3.70;;
68192;SDS011;55012;47.562;18.414;2022-08-05T10:23:33;10.00;;;4.00;;
68192;SDS011;55012;47.562;18.414;2022-08-05T10:26:02;5.30;;;4.15;;
68192;SDS011;55012;47.562;18.414;2022-08-05T10:28:33;8.13;;;4.05;;
68192;SDS011;55012;47.562;18.414;2022-08-05T10:30:59;8.57;;;4.03;;
68192;SDS011;55012;47.562;18.414;2022-08-05T10:33:27;5.68;;;4.10;;
68192;SDS011;55012;47.562;18.414;2022-08-05T10:35:55;6.75;;;4.20;;
68192;SDS011;55012;47.562;18.414;2022-08-05T10:38:22;5.40;;;4.20;;
68192;SDS011;55012;47.562;18.414;2022-08-05T10:46:15;6.38;;;4.00;;
68192;SDS011;55012;47.562;18.414;2022-08-05T10:48:43;5.82;;;4.05;;
68192;SDS011;55012;47.562;18.414;2022-08-05T10:58:31;4.68;;;3.63;;
68192;SDS011;55012;47.562;18.414;2022-08-05T11:00:58;4.40;;;4.00;;
68192;SDS011;55012;47.562;18.414;2022-08-05T11:03:23;4.90;;;4.20;;
68192;SDS011;55012;47.562;18.414;2022-08-05T11:06:01;4.72;;;4.18;;
68192;SDS011;55012;47.562;18.414;2022-08-05T11:08:26;5.20;;;3.83;;
68192;SDS011;55012;47.562;18.414;2022-08-05T11:10:53;4.90;;;3.85;;
68192;SDS011;55012;47.562;18.414;2022-08-05T11:13:37;5.82;;;3.90;;
68192;SDS011;55012;47.562;18.414;2022-08-05T11:16:20;5.35;;;3.80;;
68192;SDS011;55012;47.562;18.414;2022-08-05T11:18:47;5.63;;;3.70;;
68192;SDS011;55012;47.562;18.414;2022-08-05T11:21:30;4.75;;;4.30;;
68192;SDS011;55012;47.562;18.414;2022-08-05T11:24:05;6.57;;;4.25;;
68192;SDS011;55012;47.562;18.414;2022-08-05T11:26:35;5.85;;;3.83;;
68192;SDS011;55012;47.562;18.414;2022-08-05T11:29:01;4.72;;;3.97;;
68192;SDS011;55012;47.562;18.414;2022-08-05T11:31:29;4.43;;;4.00;;
68192;SDS011;55012;47.562;18.414;2022-08-05T11:33:57;5.20;;;4.00;;
68192;SDS011;55012;47.562;18.414;2022-08-05T11:36:40;4.30;;;3.90;;
68192;SDS011;55012;47.562;18.414;2022-08-05T11:39:14;4.30;;;3.83;;
68192;SDS011;55012;47.562;18.414;2022-08-05T11:41:48;5.35;;;3.90;;
68192;SDS011;55012;47.562;18.414;2022-08-05T11:44:15;6.80;;;4.00;;
68192;SDS011;55012;47.562;18.414;2022-08-05T11:46:48;5.82;;;3.63;;
68192;SDS011;55012;47.562;18.414;2022-08-05T11:49:15;5.67;;;3.90;;
68192;SDS011;55012;47.562;18.414;2022-08-05T11:51:42;5.53;;;3.72;;
68192;SDS011;55012;47.562;18.414;2022-08-05T11:54:13;5.70;;;3.78;;
68192;SDS011;55012;47.562;18.414;2022-08-05T11:56:49;5.70;;;3.72;;
68192;SDS011;55012;47.562;18.414;2022-08-05T11:59:20;6.47;;;4.22;;
68192;SDS011;55012;47.562;18.414;2022-08-05T12:01:55;5.28;;;3.60;;
68192;SDS011;55012;47.562;18.414;2022-08-05T12:04:20;5.78;;;4.07;;
68192;SDS011;55012;47.562;18.414;2022-08-05T12:06:46;6.38;;;3.80;;
68192;SDS011;55012;47.562;18.414;2022-08-05T12:09:12;5.28;;;3.80;;
68192;SDS011;55012;47.562;18.414;2022-08-05T12:11:42;4.72;;;3.70;;
68192;SDS011;55012;47.562;18.414;2022-08-05T12:14:09;4.53;;;4.00;;
68192;SDS011;55012;47.562;18.414;2022-08-05T12:16:38;7.80;;;4.28;;
68192;SDS011;55012;47.562;18.414;2022-08-05T12:19:05;7.78;;;4.00;;
68192;SDS011;55012;47.562;18.414;2022-08-05T12:21:33;7.32;;;3.95;;
68192;SDS011;55012;47.562;18.414;2022-08-05T12:24:02;6.90;;;3.80;;
68192;SDS011;55012;47.562;18.414;2022-08-05T12:29:04;6.10;;;3.92;;
68192;SDS011;55012;47.562;18.414;2022-08-05T12:31:32;3.70;;;3.40;;
68192;SDS011;55012;47.562;18.414;2022-08-05T12:34:01;6.57;;;3.70;;
68192;SDS011;55012;47.562;18.414;2022-08-05T12:36:33;6.50;;;4.13;;
68192;SDS011;55012;47.562;18.414;2022-08-05T12:38:59;4.35;;;3.60;;
68192;SDS011;55012;47.562;18.414;2022-08-05T12:41:30;4.60;;;3.70;;
68192;SDS011;55012;47.562;18.414;2022-08-05T12:43:57;6.07;;;3.60;;
68192;SDS011;55012;47.562;18.414;2022-08-05T12:46:26;6.47;;;3.40;;
68192;SDS011;55012;47.562;18.414;2022-08-05T12:48:59;4.32;;;3.75;;
68192;SDS011;55012;47.562;18.414;2022-08-05T12:51:26;4.03;;;3.63;;
68192;SDS011;55012;47.562;18.414;2022-08-05T12:53:59;4.43;;;3.67;;
68192;SDS011;55012;47.562;18.414;2022-08-05T12:59:11;5.55;;;4.05;;
68192;SDS011;55012;47.562;18.414;2022-08-05T13:01:38;4.63;;;3.72;;
68192;SDS011;55012;47.562;18.414;2022-08-05T13:04:04;5.40;;;3.50;;
68192;SDS011;55012;47.562;18.414;2022-08-05T13:06:30;4.80;;;3.90;;
68192;SDS011;55012;47.562;18.414;2022-08-05T13:08:56;4.43;;;3.60;;
68192;SDS011;55012;47.562;18.414;2022-08-05T13:11:22;4.13;;;3.55;;
68192;SDS011;55012;47.562;18.414;2022-08-05T13:13:52;7.97;;;3.63;;
68192;SDS011;55012;47.562;18.414;2022-08-05T13:16:21;4.78;;;3.70;;
68192;SDS011;55012;47.562;18.414;2022-08-05T13:18:50;5.68;;;3.80;;
68192;SDS011;55012;47.562;18.414;2022-08-05T13:21:16;8.27;;;3.90;;
68192;SDS011;55012;47.562;18.414;2022-08-05T13:23:41;4.70;;;3.80;;
68192;SDS011;55012;47.562;18.414;2022-08-05T13:26:07;4.45;;;3.70;;
68192;SDS011;55012;47.562;18.414;2022-08-05T13:28:32;5.32;;;3.38;;
68192;SDS011;55012;47.562;18.414;2022-08-05T13:30:58;4.50;;;3.85;;
68192;SDS011;55012;47.562;18.414;2022-08-05T13:33:23;6.00;;;4.22;;
68192;SDS011;55012;47.562;18.414;2022-08-05T13:35:49;5.93;;;4.30;;
68192;SDS011;55012;47.562;18.414;2022-08-05T13:38:14;6.50;;;4.00;;
68192;SDS011;55012;47.562;18.414;2022-08-05T13:40:40;4.28;;;3.88;;
68192;SDS011;55012;47.562;18.414;2022-08-05T13:43:06;4.05;;;3.65;;
68192;SDS011;55012;47.562;18.414;2022-08-05T13:45:31;3.70;;;3.40;;
68192;SDS011;55012;47.562;18.414;2022-08-05T13:47:57;4.78;;;3.10;;
68192;SDS011;55012;47.562;18.414;2022-08-05T13:50:22;5.47;;;3.30;;
68192;SDS011;55012;47.562;18.414;2022-08-05T13:52:48;3.83;;;3.00;;
68192;SDS011;55012;47.562;18.414;2022-08-05T13:55:13;8.10;;;3.05;;
68192;SDS011;55012;47.562;18.414;2022-08-05T13:57:39;3.47;;;2.80;;
68192;SDS011;55012;47.562;18.414;2022-08-05T14:00:04;5.22;;;3.25;;
68192;SDS011;55012;47.562;18.414;2022-08-05T14:02:30;4.25;;;2.80;;
68192;SDS011;55012;47.562;18.414;2022-08-05T14:04:56;2.92;;;2.70;;
68192;SDS011;55012;47.562;18.414;2022-08-05T14:07:41;3.72;;;2.63;;
68192;SDS011;55012;47.562;18.414;2022-08-05T14:10:12;3.67;;;2.83;;
68192;SDS011;55012;47.562;18.414;2022-08-05T14:12:40;4.13;;;2.58;;
68192;SDS011;55012;47.562;18.414;2022-08-05T14:15:06;3.00;;;2.60;;
68192;SDS011;55012;47.562;18.414;2022-08-05T14:17:32;3.17;;;2.60;;
68192;SDS011;55012;47.562;18.414;2022-08-05T14:20:00;5.97;;;2.63;;
68192;SDS011;55012;47.562;18.414;2022-08-05T14:22:26;4.35;;;2.40;;
68192;SDS011;55012;47.562;18.414;2022-08-05T14:24:52;2.88;;;2.28;;
68192;SDS011;55012;47.562;18.414;2022-08-05T14:27:17;7.22;;;2.75;;
68192;SDS011;55012;47.562;18.414;2022-08-05T14:29:43;5.30;;;2.45;;
68192;SDS011;55012;47.562;18.414;2022-08-05T14:32:08;3.08;;;2.67;;
68192;SDS011;55012;47.562;18.414;2022-08-05T14:34:34;2.70;;;2.50;;
68192;SDS011;55012;47.562;18.414;2022-08-05T14:36:59;4.45;;;2.30;;
68192;SDS011;55012;47.562;18.414;2022-08-05T14:39:25;3.78;;;2.58;;
68192;SDS011;55012;47.562;18.414;2022-08-05T14:41:51;3.33;;;2.67;;
68192;SDS011;55012;47.562;18.414;2022-08-05T14:44:16;5.03;;;2.60;;
68192;SDS011;55012;47.562;18.414;2022-08-05T14:46:42;7.47;;;2.70;;
68192;SDS011;55012;47.562;18.414;2022-08-05T14:49:07;2.72;;;2.47;;
68192;SDS011;55012;47.562;18.414;2022-08-05T14:51:37;5.93;;;2.33;;
68192;SDS011;55012;47.562;18.414;2022-08-05T14:54:04;2.63;;;2.22;;
68192;SDS011;55012;47.562;18.414;2022-08-05T14:56:31;3.28;;;2.50;;
68192;SDS011;55012;47.562;18.414;2022-08-05T14:58:57;2.60;;;2.40;;
68192;SDS011;55012;47.562;18.414;2022-08-05T15:01:22;2.97;;;2.30;;
68192;SDS011;55012;47.562;18.414;2022-08-05T15:03:48;4.53;;;2.50;;
68192;SDS011;55012;47.562;18.414;2022-08-05T15:06:13;3.17;;;2.40;;
68192;SDS011;55012;47.562;18.414;2022-08-05T15:08:42;3.65;;;2.30;;
68192;SDS011;55012;47.562;18.414;2022-08-05T15:11:08;6.40;;;2.40;;
68192;SDS011;55012;47.562;18.414;2022-08-05T15:13:34;5.70;;;2.28;;
68192;SDS011;55012;47.562;18.414;2022-08-05T15:16:00;3.88;;;2.53;;
68192;SDS011;55012;47.562;18.414;2022-08-05T15:18:26;7.20;;;2.75;;